^^
Saratoga-Weather Station Historical Data
Daily Summary for January 25, 2021 Units:  Both    English   Metric
Daily Weekly Monthly Yearly Custom
  High: Low: Average:
Temperature: 72.3 °F /  22.4 °C 48.9 °F /  9.4 °C 59.7 °F /  15.4 °C
Dew Point: 59 °F /  15 °C 47.5 °F /  8.6 °C 53.4 °F /  11.9 °C
Humidity: 96% 58% 81%
Wind Speed: 8.9mph /  14.3km/h - 1.1mph /  1.7km/h
Wind Gust: 11mph /  17.7km/h - -
Wind- - West
Pressure: 30.1 in /  1019.0 hPa 30 in /  1015.6 hPa -
Precipitation: 0 in /  0.0 mm    
Historical Graphs
 
 
Tabular Data for January 25, 2021
Time Temperature Dew Point Pressure Wind Wind Speed Wind Gust Humidity Rainfall Rate (Hourly) solar
00:04 55.8 °F /  13.2 °C 52 °F /  11.1 °C 30.1in /  1018.6hPa NNW 0.9mph /  1.4km/h 7mph /  11.3km/h 87% 0in /  0.0mm 0 W/m2
00:09 56.5 °F /  13.6 °C 52 °F /  11.1 °C 30.1in /  1018.6hPa Calm   2mph /  3.2km/h 85% 0in /  0.0mm 0 W/m2
00:14 56.7 °F /  13.7 °C 51.8 °F /  11 °C 30.1in /  1018.6hPa NW 0.9mph /  1.4km/h 4mph /  6.4km/h 84% 0in /  0.0mm 0 W/m2
00:19 56.5 °F /  13.6 °C 51.4 °F /  10.8 °C 30.1in /  1018.6hPa Calm   1mph /  1.6km/h 83% 0in /  0.0mm 0 W/m2
00:24 56.1 °F /  13.4 °C 51.4 °F /  10.8 °C 30.1in /  1018.6hPa Calm   2mph /  3.2km/h 84% 0in /  0.0mm 0 W/m2
00:29 55.9 °F /  13.3 °C 51.3 °F /  10.7 °C 30.1in /  1018.6hPa NW 0.9mph /  1.4km/h 3mph /  4.8km/h 84% 0in /  0.0mm 0 W/m2
00:34 55.8 °F /  13.2 °C 51.3 °F /  10.7 °C 30.1in /  1018.6hPa NW 2.9mph /  4.7km/h 4mph /  6.4km/h 85% 0in /  0.0mm 0 W/m2
00:39 55.9 °F /  13.3 °C 51.4 °F /  10.8 °C 30.1in /  1018.6hPa Calm   1mph /  1.6km/h 85% 0in /  0.0mm 0 W/m2
00:44 55.9 °F /  13.3 °C 51.4 °F /  10.8 °C 30.1in /  1018.6hPa Calm   4mph /  6.4km/h 85% 0in /  0.0mm 0 W/m2
00:49 55.6 °F /  13.1 °C 51.1 °F /  10.6 °C 30.1in /  1019.0hPa Calm     85% 0in /  0.0mm 0 W/m2
00:54 55.2 °F /  12.9 °C 50.7 °F /  10.4 °C 30.1in /  1019.0hPa Calm   3mph /  4.8km/h 85% 0in /  0.0mm 0 W/m2
00:59 55 °F /  12.8 °C 50.9 °F /  10.5 °C 30.1in /  1019.0hPa Calm   2mph /  3.2km/h 86% 0in /  0.0mm 0 W/m2
01:04 54.7 °F /  12.6 °C 50.5 °F /  10.3 °C 30.1in /  1019.0hPa Calm     86% 0in /  0.0mm 0 W/m2
01:09 54.3 °F /  12.4 °C 50.2 °F /  10.1 °C 30.1in /  1019.0hPa Calm     86% 0in /  0.0mm 0 W/m2
01:14 54.1 °F /  12.3 °C 50.4 °F /  10.2 °C 30.1in /  1019.0hPa West 0.9mph /  1.4km/h 2mph /  3.2km/h 87% 0in /  0.0mm 0 W/m2
01:19 54 °F /  12.2 °C 50.2 °F /  10.1 °C 30.1in /  1019.0hPa Calm     87% 0in /  0.0mm 0 W/m2
01:24 53.8 °F /  12.1 °C 50.4 °F /  10.2 °C 30.1in /  1019.0hPa West 2mph /  3.2km/h 2mph /  3.2km/h 88% 0in /  0.0mm 0 W/m2
01:29 53.4 °F /  11.9 °C 50.2 °F /  10.1 °C 30.1in /  1019.0hPa Calm   2mph /  3.2km/h 89% 0in /  0.0mm 0 W/m2
01:34 53.2 °F /  11.8 °C 50 °F /  10 °C 30.1in /  1019.0hPa Calm     89% 0in /  0.0mm 0 W/m2
01:39 53.2 °F /  11.8 °C 50 °F /  10 °C 30.1in /  1018.6hPa West 2mph /  3.2km/h 2mph /  3.2km/h 89% 0in /  0.0mm 0 W/m2
01:44 53.1 °F /  11.7 °C 50.2 °F /  10.1 °C 30.1in /  1018.6hPa West 0.9mph /  1.4km/h 2mph /  3.2km/h 90% 0in /  0.0mm 0 W/m2
01:49 53.1 °F /  11.7 °C 50.2 °F /  10.1 °C 30.1in /  1018.6hPa West 2mph /  3.2km/h 3mph /  4.8km/h 90% 0in /  0.0mm 0 W/m2
01:54 52.9 °F /  11.6 °C 50 °F /  10 °C 30.1in /  1018.6hPa West 0.9mph /  1.4km/h 2mph /  3.2km/h 90% 0in /  0.0mm 0 W/m2
01:59 52.9 °F /  11.6 °C 50 °F /  10 °C 30.1in /  1018.6hPa WNW 0.9mph /  1.4km/h 2mph /  3.2km/h 90% 0in /  0.0mm 0 W/m2
02:04 52.7 °F /  11.5 °C 49.8 °F /  9.9 °C 30.1in /  1018.6hPa WNW 2mph /  3.2km/h 2mph /  3.2km/h 90% 0in /  0.0mm 0 W/m2
02:09 52.7 °F /  11.5 °C 50.2 °F /  10.1 °C 30.1in /  1018.6hPa WNW 0.9mph /  1.4km/h 1mph /  1.6km/h 91% 0in /  0.0mm 0 W/m2
02:14 52.5 °F /  11.4 °C 50 °F /  10 °C 30.1in /  1018.6hPa WNW 0.9mph /  1.4km/h 2mph /  3.2km/h 91% 0in /  0.0mm 0 W/m2
02:19 52.5 °F /  11.4 °C 50 °F /  10 °C 30.1in /  1018.6hPa Calm   2mph /  3.2km/h 91% 0in /  0.0mm 0 W/m2
02:24 52.5 °F /  11.4 °C 50 °F /  10 °C 30.1in /  1018.6hPa Calm     91% 0in /  0.0mm 0 W/m2
02:29 52.3 °F /  11.3 °C 49.8 °F /  9.9 °C 30.1in /  1018.6hPa Calm   2mph /  3.2km/h 91% 0in /  0.0mm 0 W/m2
02:34 52.3 °F /  11.3 °C 49.8 °F /  9.9 °C 30.1in /  1018.6hPa Calm   1mph /  1.6km/h 91% 0in /  0.0mm 0 W/m2
02:39 52.2 °F /  11.2 °C 49.8 °F /  9.9 °C 30.1in /  1018.6hPa Calm   1mph /  1.6km/h 92% 0in /  0.0mm 0 W/m2
02:44 52.2 °F /  11.2 °C 49.8 °F /  9.9 °C 30.1in /  1018.6hPa Calm     92% 0in /  0.0mm 0 W/m2
02:49 52.2 °F /  11.2 °C 49.8 °F /  9.9 °C 30.1in /  1018.6hPa Calm     92% 0in /  0.0mm 0 W/m2
02:54 52 °F /  11.1 °C 49.6 °F /  9.8 °C 30.1in /  1018.6hPa Calm     92% 0in /  0.0mm 0 W/m2
02:59 52 °F /  11.1 °C 49.6 °F /  9.8 °C 30.1in /  1018.6hPa Calm     92% 0in /  0.0mm 0 W/m2
03:04 52 °F /  11.1 °C 49.6 °F /  9.8 °C 30.1in /  1018.6hPa Calm     92% 0in /  0.0mm 0 W/m2
03:09 52 °F /  11.1 °C 49.6 °F /  9.8 °C 30.1in /  1018.6hPa Calm     92% 0in /  0.0mm 0 W/m2
03:14 51.8 °F /  11 °C 49.6 °F /  9.8 °C 30.1in /  1018.6hPa Calm     92% 0in /  0.0mm 0 W/m2
03:19 51.8 °F /  11 °C 49.8 °F /  9.9 °C 30.1in /  1018.3hPa Calm     93% 0in /  0.0mm 0 W/m2
03:24 51.6 °F /  10.9 °C 49.5 °F /  9.7 °C 30.1in /  1018.3hPa Calm     92% 0in /  0.0mm 0 W/m2
03:29 51.6 °F /  10.9 °C 49.5 °F /  9.7 °C 30.1in /  1018.3hPa Calm     92% 0in /  0.0mm 0 W/m2
03:34 51.4 °F /  10.8 °C 49.3 °F /  9.6 °C 30.1in /  1018.3hPa Calm     92% 0in /  0.0mm 0 W/m2
03:39 51.4 °F /  10.8 °C 49.5 °F /  9.7 °C 30.1in /  1018.3hPa Calm     93% 0in /  0.0mm 0 W/m2
03:44 51.3 °F /  10.7 °C 49.3 °F /  9.6 °C 30.1in /  1018.3hPa Calm     93% 0in /  0.0mm 0 W/m2
03:49 51.3 °F /  10.7 °C 49.3 °F /  9.6 °C 30.1in /  1018.3hPa Calm     93% 0in /  0.0mm 0 W/m2
03:54 51.1 °F /  10.6 °C 49.1 °F /  9.5 °C 30.1in /  1018.3hPa Calm     93% 0in /  0.0mm 0 W/m2
03:59 51.1 °F /  10.6 °C 49.1 °F /  9.5 °C 30.1in /  1018.0hPa Calm     93% 0in /  0.0mm 0 W/m2
04:04 50.9 °F /  10.5 °C 48.9 °F /  9.4 °C 30.1in /  1018.0hPa Calm     93% 0in /  0.0mm 0 W/m2
04:09 50.7 °F /  10.4 °C 48.7 °F /  9.3 °C 30.1in /  1018.0hPa Calm     93% 0in /  0.0mm 0 W/m2
04:14 50.7 °F /  10.4 °C 48.7 °F /  9.3 °C 30.1in /  1018.0hPa Calm     93% 0in /  0.0mm 0 W/m2
04:19 50.7 °F /  10.4 °C 48.7 °F /  9.3 °C 30.1in /  1018.3hPa Calm     93% 0in /  0.0mm 0 W/m2
04:25 50.7 °F /  10.4 °C 49.1 °F /  9.5 °C 30.1in /  1018.3hPa Calm     94% 0in /  0.0mm 0 W/m2
04:30 50.7 °F /  10.4 °C 49.1 °F /  9.5 °C 30.1in /  1018.3hPa Calm     94% 0in /  0.0mm 0 W/m2
04:35 50.5 °F /  10.3 °C 48.9 °F /  9.4 °C 30.1in /  1018.3hPa Calm     94% 0in /  0.0mm 0 W/m2
04:40 50.5 °F /  10.3 °C 48.9 °F /  9.4 °C 30.1in /  1018.3hPa Calm     94% 0in /  0.0mm 0 W/m2
04:45 50.5 °F /  10.3 °C 48.9 °F /  9.4 °C 30.1in /  1018.3hPa Calm     94% 0in /  0.0mm 0 W/m2
04:50 50.5 °F /  10.3 °C 48.9 °F /  9.4 °C 30.1in /  1018.0hPa Calm     94% 0in /  0.0mm 0 W/m2
04:55 50.5 °F /  10.3 °C 48.9 °F /  9.4 °C 30.1in /  1018.0hPa Calm     94% 0in /  0.0mm 0 W/m2
05:00 50.5 °F /  10.3 °C 48.9 °F /  9.4 °C 30.1in /  1018.0hPa Calm     94% 0in /  0.0mm 0 W/m2
05:05 50.5 °F /  10.3 °C 48.9 °F /  9.4 °C 30.1in /  1018.3hPa Calm     94% 0in /  0.0mm 0 W/m2
05:10 50.5 °F /  10.3 °C 48.9 °F /  9.4 °C 30.1in /  1018.3hPa Calm   1mph /  1.6km/h 94% 0in /  0.0mm 0 W/m2
05:15 50.5 °F /  10.3 °C 48.9 °F /  9.4 °C 30.1in /  1018.3hPa Calm   2mph /  3.2km/h 94% 0in /  0.0mm 0 W/m2
05:20 50.5 °F /  10.3 °C 48.9 °F /  9.4 °C 30.1in /  1018.0hPa Calm     94% 0in /  0.0mm 0 W/m2
05:25 50.4 °F /  10.2 °C 48.7 °F /  9.3 °C 30.1in /  1018.3hPa WNW 0.9mph /  1.4km/h 2mph /  3.2km/h 94% 0in /  0.0mm 0 W/m2
05:30 50.4 °F /  10.2 °C 48.7 °F /  9.3 °C 30.1in /  1018.0hPa Calm     94% 0in /  0.0mm 0 W/m2
05:35 50.4 °F /  10.2 °C 48.7 °F /  9.3 °C 30.1in /  1018.0hPa Calm   2mph /  3.2km/h 94% 0in /  0.0mm 0 W/m2
05:40 50.4 °F /  10.2 °C 48.9 °F /  9.4 °C 30.1in /  1018.0hPa Calm     95% 0in /  0.0mm 0 W/m2
05:45 50.4 °F /  10.2 °C 48.9 °F /  9.4 °C 30.1in /  1018.0hPa Calm     95% 0in /  0.0mm 0 W/m2
05:50 50.4 °F /  10.2 °C 48.7 °F /  9.3 °C 30.1in /  1018.0hPa Calm     94% 0in /  0.0mm 0 W/m2
05:55 50.2 °F /  10.1 °C 48.6 °F /  9.2 °C 30.1in /  1018.0hPa Calm     94% 0in /  0.0mm 0 W/m2
06:00 50 °F /  10 °C 48.6 °F /  9.2 °C 30.1in /  1018.0hPa Calm     95% 0in /  0.0mm 0 W/m2
06:05 50 °F /  10 °C 48.6 °F /  9.2 °C 30.1in /  1018.3hPa Calm     95% 0in /  0.0mm 0 W/m2
06:10 49.8 °F /  9.9 °C 48.4 °F /  9.1 °C 30.1in /  1018.3hPa Calm     95% 0in /  0.0mm 0 W/m2
06:15 49.8 °F /  9.9 °C 48.4 °F /  9.1 °C 30.1in /  1018.3hPa Calm     95% 0in /  0.0mm 0 W/m2
06:20 49.8 °F /  9.9 °C 48.4 °F /  9.1 °C 30.1in /  1018.3hPa Calm     95% 0in /  0.0mm 0 W/m2
06:25 49.8 °F /  9.9 °C 48.4 °F /  9.1 °C 30.1in /  1018.3hPa Calm     95% 0in /  0.0mm 0 W/m2
06:30 49.8 °F /  9.9 °C 48.4 °F /  9.1 °C 30.1in /  1018.3hPa Calm     95% 0in /  0.0mm 0 W/m2
06:35 49.8 °F /  9.9 °C 48.4 °F /  9.1 °C 30.1in /  1018.3hPa Calm     95% 0in /  0.0mm 0 W/m2
06:40 49.6 °F /  9.8 °C 48.2 °F /  9 °C 30.1in /  1018.3hPa Calm     95% 0in /  0.0mm 0 W/m2
06:45 49.6 °F /  9.8 °C 48.2 °F /  9 °C 30.1in /  1018.3hPa Calm     95% 0in /  0.0mm 0 W/m2
06:50 49.5 °F /  9.7 °C 48 °F /  8.9 °C 30.1in /  1018.3hPa Calm     95% 0in /  0.0mm 0 W/m2
06:55 49.5 °F /  9.7 °C 48 °F /  8.9 °C 30.1in /  1018.0hPa Calm     95% 0in /  0.0mm 0 W/m2
07:00 49.5 °F /  9.7 °C 48 °F /  8.9 °C 30.1in /  1018.3hPa Calm   1mph /  1.6km/h 95% 0in /  0.0mm 0 W/m2
07:05 49.3 °F /  9.6 °C 47.8 °F /  8.8 °C 30.1in /  1018.3hPa Calm     95% 0in /  0.0mm 0 W/m2
07:10 49.3 °F /  9.6 °C 47.8 °F /  8.8 °C 30.1in /  1018.3hPa Calm   1mph /  1.6km/h 95% 0in /  0.0mm 0 W/m2
07:15 49.3 °F /  9.6 °C 47.8 °F /  8.8 °C 30.1in /  1018.3hPa Calm     95% 0in /  0.0mm 0 W/m2
07:20 49.1 °F /  9.5 °C 47.7 °F /  8.7 °C 30.1in /  1018.3hPa Calm     95% 0in /  0.0mm 0 W/m2
07:25 48.9 °F /  9.4 °C 47.5 °F /  8.6 °C 30.1in /  1018.3hPa Calm     95% 0in /  0.0mm 0 W/m2
07:30 48.9 °F /  9.4 °C 47.5 °F /  8.6 °C 30.1in /  1018.3hPa Calm     95% 0in /  0.0mm 5 W/m2
07:35 48.9 °F /  9.4 °C 47.5 °F /  8.6 °C 30.1in /  1018.0hPa Calm     95% 0in /  0.0mm 7 W/m2
08:12 50 °F /  10 °C 48.9 °F /  9.4 °C 30.1in /  1018.3hPa Calm   1mph /  1.6km/h 96% 0in /  0.0mm 21 W/m2
08:17 50.2 °F /  10.1 °C 49.1 °F /  9.5 °C 30.1in /  1018.3hPa WNW 0.9mph /  1.4km/h 2mph /  3.2km/h 96% 0in /  0.0mm 23 W/m2
08:22 50.4 °F /  10.2 °C 49.3 °F /  9.6 °C 30.1in /  1018.3hPa West 2mph /  3.2km/h 2mph /  3.2km/h 96% 0in /  0.0mm 25 W/m2
08:27 50.5 °F /  10.3 °C 49.5 °F /  9.7 °C 30.1in /  1018.3hPa Calm   2mph /  3.2km/h 96% 0in /  0.0mm 28 W/m2
08:32 50.7 °F /  10.4 °C 49.6 °F /  9.8 °C 30.1in /  1018.3hPa Calm   2mph /  3.2km/h 96% 0in /  0.0mm 30 W/m2
08:37 50.9 °F /  10.5 °C 49.8 °F /  9.9 °C 30.1in /  1018.3hPa Calm     96% 0in /  0.0mm 32 W/m2
08:42 51.1 °F /  10.6 °C 50 °F /  10 °C 30.1in /  1018.3hPa Calm   2mph /  3.2km/h 96% 0in /  0.0mm 33 W/m2
08:47 51.1 °F /  10.6 °C 50 °F /  10 °C 30.1in /  1018.3hPa WSW 0.9mph /  1.4km/h 1mph /  1.6km/h 96% 0in /  0.0mm 35 W/m2
08:52 51.3 °F /  10.7 °C 50.2 °F /  10.1 °C 30.1in /  1018.3hPa Calm   1mph /  1.6km/h 96% 0in /  0.0mm 35 W/m2
08:57 51.4 °F /  10.8 °C 50.4 °F /  10.2 °C 30.1in /  1018.3hPa Calm     96% 0in /  0.0mm 37 W/m2
09:02 51.6 °F /  10.9 °C 50.5 °F /  10.3 °C 30.1in /  1018.3hPa Calm     96% 0in /  0.0mm 39 W/m2
09:07 52 °F /  11.1 °C 50.9 °F /  10.5 °C 30.1in /  1018.3hPa Calm     96% 0in /  0.0mm 109 W/m2
09:12 52.3 °F /  11.3 °C 51.3 °F /  10.7 °C 30.1in /  1018.3hPa Calm     96% 0in /  0.0mm 181 W/m2
09:17 52.9 °F /  11.6 °C 51.8 °F /  11 °C 30.1in /  1018.3hPa WNW 0.9mph /  1.4km/h 1mph /  1.6km/h 96% 0in /  0.0mm 195 W/m2
09:22 53.4 °F /  11.9 °C 52.3 °F /  11.3 °C 30.1in /  1018.3hPa Calm     96% 0in /  0.0mm 209 W/m2
09:27 54 °F /  12.2 °C 52.9 °F /  11.6 °C 30.1in /  1018.3hPa Calm     96% 0in /  0.0mm 223 W/m2
09:32 54.7 °F /  12.6 °C 53.6 °F /  12 °C 30.1in /  1018.3hPa Calm     96% 0in /  0.0mm 234 W/m2
09:37 55.6 °F /  13.1 °C 54.5 °F /  12.5 °C 30.1in /  1018.3hPa NNW 0.9mph /  1.4km/h 2mph /  3.2km/h 96% 0in /  0.0mm 251 W/m2
09:42 56.3 °F /  13.5 °C 54.9 °F /  12.7 °C 30.1in /  1018.3hPa NE 0.9mph /  1.4km/h 2mph /  3.2km/h 95% 0in /  0.0mm 264 W/m2
09:47 57.2 °F /  14 °C 55.4 °F /  13 °C 30.1in /  1018.3hPa Calm   2mph /  3.2km/h 94% 0in /  0.0mm 276 W/m2
09:52 58.1 °F /  14.5 °C 55.8 °F /  13.2 °C 30.1in /  1018.3hPa SW 0.9mph /  1.4km/h 3mph /  4.8km/h 92% 0in /  0.0mm 290 W/m2
09:57 58.6 °F /  14.8 °C 55.9 °F /  13.3 °C 30.1in /  1018.3hPa Calm     91% 0in /  0.0mm 299 W/m2
10:02 59.4 °F /  15.2 °C 55.8 °F /  13.2 °C 30.1in /  1018.6hPa WNW 0.9mph /  1.4km/h 3mph /  4.8km/h 88% 0in /  0.0mm 309 W/m2
10:07 59.5 °F /  15.3 °C 55.4 °F /  13 °C 30.1in /  1018.6hPa West 2.9mph /  4.7km/h 9mph /  14.5km/h 86% 0in /  0.0mm 327 W/m2
10:12 59.5 °F /  15.3 °C 55.4 °F /  13 °C 30.1in /  1018.6hPa NW 4.9mph /  7.9km/h 7mph /  11.3km/h 86% 0in /  0.0mm 353 W/m2
10:17 59.5 °F /  15.3 °C 55 °F /  12.8 °C 30.1in /  1018.6hPa WNW 2.9mph /  4.7km/h 4mph /  6.4km/h 85% 0in /  0.0mm 388 W/m2
10:22 59.7 °F /  15.4 °C 55.2 °F /  12.9 °C 30.1in /  1018.6hPa NW 2.9mph /  4.7km/h 5mph /  8km/h 85% 0in /  0.0mm 313 W/m2
10:27 60.1 °F /  15.6 °C 55.6 °F /  13.1 °C 30.1in /  1018.6hPa NW 0.9mph /  1.4km/h 4mph /  6.4km/h 85% 0in /  0.0mm 290 W/m2
10:32 60.4 °F /  15.8 °C 56.3 °F /  13.5 °C 30.1in /  1018.6hPa Calm   1mph /  1.6km/h 86% 0in /  0.0mm 404 W/m2
10:37 60.8 °F /  16 °C 55.9 °F /  13.3 °C 30.1in /  1018.3hPa WNW 4.9mph /  7.9km/h 9mph /  14.5km/h 84% 0in /  0.0mm 439 W/m2
10:42 61.2 °F /  16.2 °C 56.3 °F /  13.5 °C 30.1in /  1018.3hPa SW 0.9mph /  1.4km/h 6mph /  9.7km/h 84% 0in /  0.0mm 469 W/m2
10:47 61.5 °F /  16.4 °C 56.3 °F /  13.5 °C 30.1in /  1018.6hPa WNW 6.9mph /  11.1km/h 9mph /  14.5km/h 83% 0in /  0.0mm 232 W/m2
10:52 61.7 °F /  16.5 °C 56.1 °F /  13.4 °C 30.1in /  1018.3hPa NW 2mph /  3.2km/h 3mph /  4.8km/h 82% 0in /  0.0mm 257 W/m2
10:57 62.1 °F /  16.7 °C 56.5 °F /  13.6 °C 30.1in /  1018.3hPa WSW 0.9mph /  1.4km/h 4mph /  6.4km/h 82% 0in /  0.0mm 302 W/m2
11:02 62.4 °F /  16.9 °C 56.8 °F /  13.8 °C 30.1in /  1018.3hPa NW 2.9mph /  4.7km/h 5mph /  8km/h 82% 0in /  0.0mm 473 W/m2
11:07 63 °F /  17.2 °C 57 °F /  13.9 °C 30.1in /  1018.3hPa WNW 2mph /  3.2km/h 11mph /  17.7km/h 81% 0in /  0.0mm 475 W/m2
11:12 63.3 °F /  17.4 °C 57.4 °F /  14.1 °C 30.1in /  1018.3hPa West 2mph /  3.2km/h 7mph /  11.3km/h 81% 0in /  0.0mm 489 W/m2
11:17 63.5 °F /  17.5 °C 57.2 °F /  14 °C 30.1in /  1018.3hPa West 4mph /  6.4km/h 11mph /  17.7km/h 80% 0in /  0.0mm 494 W/m2
11:22 63.9 °F /  17.7 °C 57.6 °F /  14.2 °C 30.1in /  1018.3hPa WSW 4mph /  6.4km/h 8mph /  12.9km/h 80% 0in /  0.0mm 508 W/m2
11:27 64 °F /  17.8 °C 57.4 °F /  14.1 °C 30.1in /  1018.3hPa WNW 2.9mph /  4.7km/h 7mph /  11.3km/h 79% 0in /  0.0mm 513 W/m2
11:32 64.2 °F /  17.9 °C 57.2 °F /  14 °C 30.1in /  1018.3hPa NW 2mph /  3.2km/h 7mph /  11.3km/h 78% 0in /  0.0mm 522 W/m2
11:37 64.4 °F /  18 °C 57.4 °F /  14.1 °C 30.1in /  1018.3hPa SW 4.9mph /  7.9km/h 6mph /  9.7km/h 78% 0in /  0.0mm 533 W/m2
11:42 64.6 °F /  18.1 °C 57.6 °F /  14.2 °C 30.1in /  1018.3hPa West 8.9mph /  14.3km/h 10mph /  16.1km/h 78% 0in /  0.0mm 541 W/m2
11:47 64.8 °F /  18.2 °C 57.4 °F /  14.1 °C 30.1in /  1018.3hPa NW 2.9mph /  4.7km/h 7mph /  11.3km/h 77% 0in /  0.0mm 545 W/m2
11:52 64.8 °F /  18.2 °C 57.4 °F /  14.1 °C 30.1in /  1018.3hPa WSW 2.9mph /  4.7km/h 9mph /  14.5km/h 77% 0in /  0.0mm 554 W/m2
11:57 64.9 °F /  18.3 °C 57.2 °F /  14 °C 30.1in /  1018.0hPa West 2mph /  3.2km/h 9mph /  14.5km/h 76% 0in /  0.0mm 561 W/m2
12:02 65.1 °F /  18.4 °C 57.4 °F /  14.1 °C 30.1in /  1018.3hPa WNW 8.1mph /  13km/h 8mph /  12.9km/h 76% 0in /  0.0mm 568 W/m2
12:07 65.5 °F /  18.6 °C 57.4 °F /  14.1 °C 30.1in /  1018.0hPa NW 4mph /  6.4km/h 6mph /  9.7km/h 75% 0in /  0.0mm 577 W/m2
12:12 65.7 °F /  18.7 °C 57.6 °F /  14.2 °C 30.1in /  1018.0hPa NW 2.9mph /  4.7km/h 7mph /  11.3km/h 75% 0in /  0.0mm 584 W/m2
12:17 65.7 °F /  18.7 °C 57.2 °F /  14 °C 30.1in /  1018.3hPa NW 2mph /  3.2km/h 8mph /  12.9km/h 74% 0in /  0.0mm 589 W/m2
12:22 65.8 °F /  18.8 °C 57.7 °F /  14.3 °C 30.1in /  1018.0hPa NW 2.9mph /  4.7km/h 6mph /  9.7km/h 75% 0in /  0.0mm 592 W/m2
12:27 65.8 °F /  18.8 °C 57.4 °F /  14.1 °C 30.1in /  1018.3hPa WSW 2.9mph /  4.7km/h 6mph /  9.7km/h 74% 0in /  0.0mm 613 W/m2
12:32 66 °F /  18.9 °C 57.6 °F /  14.2 °C 30.1in /  1018.3hPa WNW 6mph /  9.7km/h 8mph /  12.9km/h 74% 0in /  0.0mm 626 W/m2
12:37 66.4 °F /  19.1 °C 57.4 °F /  14.1 °C 30.1in /  1018.3hPa Calm   4mph /  6.4km/h 73% 0in /  0.0mm 652 W/m2
12:42 66.6 °F /  19.2 °C 58.1 °F /  14.5 °C 30.1in /  1018.3hPa WNW 0.9mph /  1.4km/h 2mph /  3.2km/h 74% 0in /  0.0mm 629 W/m2
12:47 66.9 °F /  19.4 °C 57.9 °F /  14.4 °C 30.1in /  1018.0hPa WNW 2mph /  3.2km/h 4mph /  6.4km/h 73% 0in /  0.0mm 619 W/m2
12:52 67.3 °F /  19.6 °C 58.3 °F /  14.6 °C 30.1in /  1018.0hPa NW 2.9mph /  4.7km/h 8mph /  12.9km/h 73% 0in /  0.0mm 722 W/m2
12:57 67.3 °F /  19.6 °C 57.9 °F /  14.4 °C 30.1in /  1018.0hPa NW 2.9mph /  4.7km/h 3mph /  4.8km/h 72% 0in /  0.0mm 740 W/m2
13:02 67.6 °F /  19.8 °C 58.3 °F /  14.6 °C 30.1in /  1018.0hPa WSW 0.9mph /  1.4km/h 3mph /  4.8km/h 72% 0in /  0.0mm 745 W/m2
13:07 67.8 °F /  19.9 °C 58.1 °F /  14.5 °C 30.1in /  1018.0hPa West 2.9mph /  4.7km/h 7mph /  11.3km/h 71% 0in /  0.0mm 267 W/m2
13:12 67.6 °F /  19.8 °C 57.9 °F /  14.4 °C 30.1in /  1018.0hPa NW 2mph /  3.2km/h 5mph /  8km/h 71% 0in /  0.0mm 269 W/m2
13:17 67.8 °F /  19.9 °C 58.1 °F /  14.5 °C 30.1in /  1018.0hPa West 2mph /  3.2km/h 3mph /  4.8km/h 71% 0in /  0.0mm 253 W/m2
13:22 68.4 °F /  20.2 °C 59 °F /  15 °C 30.1in /  1018.0hPa West 4mph /  6.4km/h 9mph /  14.5km/h 72% 0in /  0.0mm 858 W/m2
13:27 68.7 °F /  20.4 °C 58.1 °F /  14.5 °C 30.1in /  1018.0hPa West 2mph /  3.2km/h 4mph /  6.4km/h 69% 0in /  0.0mm 805 W/m2
13:32 68.5 °F /  20.3 °C 57.9 °F /  14.4 °C 30.1in /  1018.0hPa WNW 2mph /  3.2km/h 9mph /  14.5km/h 69% 0in /  0.0mm 306 W/m2
13:37 68.2 °F /  20.1 °C 57.6 °F /  14.2 °C 30.1in /  1018.0hPa NW 0.9mph /  1.4km/h 6mph /  9.7km/h 69% 0in /  0.0mm 274 W/m2
13:42 68.2 °F /  20.1 °C 58.1 °F /  14.5 °C 30.1in /  1018.0hPa WNW 4.9mph /  7.9km/h 9mph /  14.5km/h 70% 0in /  0.0mm 264 W/m2
13:47 68.2 °F /  20.1 °C 58.1 °F /  14.5 °C 30.1in /  1018.0hPa SW 2mph /  3.2km/h 3mph /  4.8km/h 70% 0in /  0.0mm 160 W/m2
13:52 68 °F /  20 °C 57.9 °F /  14.4 °C 30.1in /  1018.0hPa West 2mph /  3.2km/h 8mph /  12.9km/h 70% 0in /  0.0mm 165 W/m2
13:57 68.2 °F /  20.1 °C 58.1 °F /  14.5 °C 30.1in /  1017.6hPa WNW 2mph /  3.2km/h 2mph /  3.2km/h 70% 0in /  0.0mm 749 W/m2
14:02 68.5 °F /  20.3 °C 58.3 °F /  14.6 °C 30.1in /  1017.6hPa Calm   1mph /  1.6km/h 70% 0in /  0.0mm 744 W/m2
14:07 69.1 °F /  20.6 °C 58.1 °F /  14.5 °C 30.1in /  1017.6hPa West 6mph /  9.7km/h 9mph /  14.5km/h 68% 0in /  0.0mm 763 W/m2
14:12 68.9 °F /  20.5 °C 57.6 °F /  14.2 °C 30.1in /  1017.6hPa West 6mph /  9.7km/h 8mph /  12.9km/h 67% 0in /  0.0mm 141 W/m2
14:17 68.4 °F /  20.2 °C 57 °F /  13.9 °C 30.1in /  1017.6hPa WNW 4mph /  6.4km/h 9mph /  14.5km/h 67% 0in /  0.0mm 137 W/m2
14:22 68 °F /  20 °C 57 °F /  13.9 °C 30.1in /  1017.6hPa West 2mph /  3.2km/h 4mph /  6.4km/h 68% 0in /  0.0mm 134 W/m2
14:27 67.8 °F /  19.9 °C 57.2 °F /  14 °C 30.1in /  1017.6hPa West 2mph /  3.2km/h 7mph /  11.3km/h 69% 0in /  0.0mm 633 W/m2
14:32 68.5 °F /  20.3 °C 57.6 °F /  14.2 °C 30in /  1017.3hPa West 4mph /  6.4km/h 9mph /  14.5km/h 68% 0in /  0.0mm 722 W/m2
14:37 68.7 °F /  20.4 °C 57.4 °F /  14.1 °C 30in /  1017.3hPa NW 2.9mph /  4.7km/h 4mph /  6.4km/h 67% 0in /  0.0mm 167 W/m2
14:42 69.1 °F /  20.6 °C 58.1 °F /  14.5 °C 30in /  1017.3hPa West 6mph /  9.7km/h 9mph /  14.5km/h 68% 0in /  0.0mm 656 W/m2
14:47 69.3 °F /  20.7 °C 57.4 °F /  14.1 °C 30in /  1017.3hPa NNW 2mph /  3.2km/h 4mph /  6.4km/h 66% 0in /  0.0mm 626 W/m2
14:52 69.3 °F /  20.7 °C 57.9 °F /  14.4 °C 30in /  1016.9hPa West 2.9mph /  4.7km/h 4mph /  6.4km/h 67% 0in /  0.0mm 717 W/m2
14:57 69.8 °F /  21 °C 57.9 °F /  14.4 °C 30in /  1016.9hPa North 0.9mph /  1.4km/h 3mph /  4.8km/h 66% 0in /  0.0mm 650 W/m2
15:02 70.2 °F /  21.2 °C 58.3 °F /  14.6 °C 30in /  1016.9hPa NNW 0.9mph /  1.4km/h 4mph /  6.4km/h 66% 0in /  0.0mm 599 W/m2
15:07 70.3 °F /  21.3 °C 58.5 °F /  14.7 °C 30in /  1016.9hPa WSW 2.9mph /  4.7km/h 6mph /  9.7km/h 66% 0in /  0.0mm 601 W/m2
15:12 70.3 °F /  21.3 °C 58.1 °F /  14.5 °C 30in /  1016.9hPa NNW 2mph /  3.2km/h 5mph /  8km/h 65% 0in /  0.0mm 603 W/m2
15:17 70.7 °F /  21.5 °C 58.3 °F /  14.6 °C 30in /  1016.9hPa Calm   3mph /  4.8km/h 65% 0in /  0.0mm 589 W/m2
15:23 71.2 °F /  21.8 °C 58.5 °F /  14.7 °C 30in /  1016.6hPa NW 4mph /  6.4km/h 9mph /  14.5km/h 64% 0in /  0.0mm 575 W/m2
15:28 71.1 °F /  21.7 °C 57.7 °F /  14.3 °C 30in /  1016.6hPa SW 2mph /  3.2km/h 4mph /  6.4km/h 63% 0in /  0.0mm 578 W/m2
15:33 71.4 °F /  21.9 °C 58.1 °F /  14.5 °C 30in /  1016.6hPa West 0.9mph /  1.4km/h 9mph /  14.5km/h 63% 0in /  0.0mm 564 W/m2
15:38 71.8 °F /  22.1 °C 58.5 °F /  14.7 °C 30in /  1016.6hPa WNW 0.9mph /  1.4km/h 2mph /  3.2km/h 63% 0in /  0.0mm 550 W/m2
15:43 72 °F /  22.2 °C 58.3 °F /  14.6 °C 30in /  1016.6hPa WNW 4.9mph /  7.9km/h 7mph /  11.3km/h 62% 0in /  0.0mm 541 W/m2
15:48 71.8 °F /  22.1 °C 57.6 °F /  14.2 °C 30in /  1016.6hPa NNW 0.9mph /  1.4km/h 4mph /  6.4km/h 61% 0in /  0.0mm 538 W/m2
15:53 71.8 °F /  22.1 °C 57.2 °F /  14 °C 30in /  1016.3hPa SW 0.9mph /  1.4km/h 7mph /  11.3km/h 60% 0in /  0.0mm 517 W/m2
15:58 72 °F /  22.2 °C 57.7 °F /  14.3 °C 30in /  1016.3hPa NW 0.9mph /  1.4km/h 2mph /  3.2km/h 61% 0in /  0.0mm 512 W/m2
16:03 72 °F /  22.2 °C 56.8 °F /  13.8 °C 30in /  1016.3hPa NW 2.9mph /  4.7km/h 7mph /  11.3km/h 59% 0in /  0.0mm 501 W/m2
16:08 72.1 °F /  22.3 °C 57.9 °F /  14.4 °C 30in /  1016.3hPa Calm   2mph /  3.2km/h 61% 0in /  0.0mm 490 W/m2
16:13 72.3 °F /  22.4 °C 56.7 °F /  13.7 °C 30in /  1016.3hPa North 0.9mph /  1.4km/h 5mph /  8km/h 58% 0in /  0.0mm 480 W/m2
16:18 72.1 °F /  22.3 °C 57 °F /  13.9 °C 30in /  1015.9hPa Calm   3mph /  4.8km/h 59% 0in /  0.0mm 462 W/m2
16:23 72.1 °F /  22.3 °C 57 °F /  13.9 °C 30in /  1016.3hPa WNW 2.9mph /  4.7km/h 5mph /  8km/h 59% 0in /  0.0mm 461 W/m2
16:28 72 °F /  22.2 °C 57.4 °F /  14.1 °C 30in /  1016.3hPa East 2mph /  3.2km/h 3mph /  4.8km/h 60% 0in /  0.0mm 432 W/m2
16:33 72.1 °F /  22.3 °C 57.6 °F /  14.2 °C 30in /  1016.3hPa West 2.9mph /  4.7km/h 6mph /  9.7km/h 60% 0in /  0.0mm 394 W/m2
16:38 72.1 °F /  22.3 °C 57.6 °F /  14.2 °C 30in /  1015.9hPa SSE 0.9mph /  1.4km/h 3mph /  4.8km/h 60% 0in /  0.0mm 387 W/m2
16:43 72.3 °F /  22.4 °C 58.1 °F /  14.5 °C 30in /  1015.9hPa West 2mph /  3.2km/h 4mph /  6.4km/h 61% 0in /  0.0mm 406 W/m2
16:48 72.3 °F /  22.4 °C 56.7 °F /  13.7 °C 30in /  1015.9hPa WSW 2mph /  3.2km/h 4mph /  6.4km/h 58% 0in /  0.0mm 401 W/m2
16:53 72.1 °F /  22.3 °C 57 °F /  13.9 °C 30in /  1015.9hPa Calm   4mph /  6.4km/h 59% 0in /  0.0mm 387 W/m2
16:58 72.3 °F /  22.4 °C 56.7 °F /  13.7 °C 30in /  1015.9hPa Calm   1mph /  1.6km/h 58% 0in /  0.0mm 373 W/m2
17:03 72.3 °F /  22.4 °C 57.2 °F /  14 °C 30in /  1015.9hPa Calm   3mph /  4.8km/h 59% 0in /  0.0mm 359 W/m2
17:08 72.3 °F /  22.4 °C 56.7 °F /  13.7 °C 30in /  1015.9hPa WNW 0.9mph /  1.4km/h 5mph /  8km/h 58% 0in /  0.0mm 346 W/m2
17:13 72.3 °F /  22.4 °C 57.2 °F /  14 °C 30in /  1015.9hPa NE 0.9mph /  1.4km/h 3mph /  4.8km/h 59% 0in /  0.0mm 334 W/m2
17:18 72.3 °F /  22.4 °C 57.7 °F /  14.3 °C 30in /  1015.6hPa Calm   1mph /  1.6km/h 60% 0in /  0.0mm 322 W/m2
17:23 72.3 °F /  22.4 °C 57.2 °F /  14 °C 30in /  1015.9hPa North 2mph /  3.2km/h 2mph /  3.2km/h 59% 0in /  0.0mm 306 W/m2
17:28 72.3 °F /  22.4 °C 57.7 °F /  14.3 °C 30in /  1015.6hPa ESE 0.9mph /  1.4km/h 2mph /  3.2km/h 60% 0in /  0.0mm 292 W/m2
17:33 72.3 °F /  22.4 °C 57.7 °F /  14.3 °C 30in /  1015.6hPa WSW 2mph /  3.2km/h 3mph /  4.8km/h 60% 0in /  0.0mm 279 W/m2
17:38 72.3 °F /  22.4 °C 57.2 °F /  14 °C 30in /  1015.6hPa WNW 2mph /  3.2km/h 4mph /  6.4km/h 59% 0in /  0.0mm 267 W/m2
17:43 72.3 °F /  22.4 °C 57.2 °F /  14 °C 30in /  1015.6hPa WNW 0.9mph /  1.4km/h 2mph /  3.2km/h 59% 0in /  0.0mm 253 W/m2
17:48 72.3 °F /  22.4 °C 58.6 °F /  14.8 °C 30in /  1015.6hPa NW 0.9mph /  1.4km/h 4mph /  6.4km/h 62% 0in /  0.0mm 237 W/m2
17:53 72.3 °F /  22.4 °C 59 °F /  15 °C 30in /  1015.6hPa WSW 2mph /  3.2km/h 2mph /  3.2km/h 63% 0in /  0.0mm 223 W/m2
17:58 72.3 °F /  22.4 °C 58.1 °F /  14.5 °C 30in /  1015.6hPa WSW 0.9mph /  1.4km/h 2mph /  3.2km/h 61% 0in /  0.0mm 211 W/m2
18:03 72.1 °F /  22.3 °C 58.8 °F /  14.9 °C 30in /  1015.6hPa WSW 0.9mph /  1.4km/h 1mph /  1.6km/h 63% 0in /  0.0mm 179 W/m2
18:08 71.8 °F /  22.1 °C 58.1 °F /  14.5 °C 30in /  1015.6hPa West 2mph /  3.2km/h 3mph /  4.8km/h 62% 0in /  0.0mm 149 W/m2
18:13 71.4 °F /  21.9 °C 58.1 °F /  14.5 °C 30in /  1015.6hPa Calm   1mph /  1.6km/h 63% 0in /  0.0mm 169 W/m2
18:18 71.4 °F /  21.9 °C 58.6 °F /  14.8 °C 30in /  1015.6hPa Calm   3mph /  4.8km/h 64% 0in /  0.0mm 151 W/m2
18:23 71.2 °F /  21.8 °C 58.8 °F /  14.9 °C 30in /  1015.6hPa Calm   1mph /  1.6km/h 65% 0in /  0.0mm 100 W/m2
18:28 70.9 °F /  21.6 °C 58.5 °F /  14.7 °C 30in /  1015.6hPa Calm     65% 0in /  0.0mm 28 W/m2
18:33 70.2 °F /  21.2 °C 58.3 °F /  14.6 °C 30in /  1015.6hPa Calm     66% 0in /  0.0mm 26 W/m2
18:38 69.4 °F /  20.8 °C 57.9 °F /  14.4 °C 30in /  1015.6hPa West 0.9mph /  1.4km/h 1mph /  1.6km/h 67% 0in /  0.0mm 23 W/m2
18:43 68.7 °F /  20.4 °C 57.7 °F /  14.3 °C 30in /  1015.6hPa West 0.9mph /  1.4km/h 1mph /  1.6km/h 68% 0in /  0.0mm 21 W/m2
18:48 68.4 °F /  20.2 °C 57.7 °F /  14.3 °C 30in /  1015.6hPa West 0.9mph /  1.4km/h 2mph /  3.2km/h 69% 0in /  0.0mm 19 W/m2
18:53 67.6 °F /  19.8 °C 57.6 °F /  14.2 °C 30in /  1015.6hPa Calm   1mph /  1.6km/h 70% 0in /  0.0mm 18 W/m2
18:58 67.1 °F /  19.5 °C 57 °F /  13.9 °C 30in /  1015.6hPa Calm     70% 0in /  0.0mm 16 W/m2
19:03 66.6 °F /  19.2 °C 56.8 °F /  13.8 °C 30in /  1015.6hPa Calm     71% 0in /  0.0mm 14 W/m2
19:08 66 °F /  18.9 °C 56.7 °F /  13.7 °C 30in /  1015.6hPa Calm     72% 0in /  0.0mm 12 W/m2
19:13 65.7 °F /  18.7 °C 56.8 °F /  13.8 °C 30in /  1015.6hPa Calm     73% 0in /  0.0mm 11 W/m2
19:18 65.1 °F /  18.4 °C 56.3 °F /  13.5 °C 30in /  1015.6hPa Calm     73% 0in /  0.0mm 9 W/m2
19:23 64.6 °F /  18.1 °C 56.1 °F /  13.4 °C 30in /  1015.9hPa WSW 0.9mph /  1.4km/h 1mph /  1.6km/h 74% 0in /  0.0mm 7 W/m2
19:28 64.2 °F /  17.9 °C 55.8 °F /  13.2 °C 30in /  1015.9hPa WSW 0.9mph /  1.4km/h 1mph /  1.6km/h 74% 0in /  0.0mm 5 W/m2
19:33 64 °F /  17.8 °C 55.2 °F /  12.9 °C 30in /  1015.9hPa SSW 2.9mph /  4.7km/h 4mph /  6.4km/h 73% 0in /  0.0mm 0 W/m2
19:39 64 °F /  17.8 °C 54.9 °F /  12.7 °C 30in /  1015.9hPa NW 2mph /  3.2km/h 4mph /  6.4km/h 72% 0in /  0.0mm 0 W/m2
19:44 64.2 °F /  17.9 °C 54.7 °F /  12.6 °C 30in /  1015.9hPa West 2mph /  3.2km/h 4mph /  6.4km/h 71% 0in /  0.0mm 0 W/m2
19:49 64.6 °F /  18.1 °C 54.5 °F /  12.5 °C 30in /  1015.9hPa West 2mph /  3.2km/h 4mph /  6.4km/h 70% 0in /  0.0mm 0 W/m2
19:54 64.6 °F /  18.1 °C 54.1 °F /  12.3 °C 30in /  1015.9hPa West 2mph /  3.2km/h 4mph /  6.4km/h 69% 0in /  0.0mm 0 W/m2
19:59 64.6 °F /  18.1 °C 54.1 °F /  12.3 °C 30in /  1015.9hPa WSW 2mph /  3.2km/h 3mph /  4.8km/h 69% 0in /  0.0mm 0 W/m2
20:04 64.2 °F /  17.9 °C 53.8 °F /  12.1 °C 30in /  1016.3hPa West 2mph /  3.2km/h 5mph /  8km/h 69% 0in /  0.0mm 0 W/m2
20:09 64.2 °F /  17.9 °C 53.8 °F /  12.1 °C 30in /  1016.3hPa West 4mph /  6.4km/h 4mph /  6.4km/h 69% 0in /  0.0mm 0 W/m2
20:14 64 °F /  17.8 °C 53.6 °F /  12 °C 30in /  1016.3hPa WSW 0.9mph /  1.4km/h 3mph /  4.8km/h 69% 0in /  0.0mm 0 W/m2
20:19 63.9 °F /  17.7 °C 53.1 °F /  11.7 °C 30in /  1016.3hPa West 2mph /  3.2km/h 3mph /  4.8km/h 68% 0in /  0.0mm 0 W/m2
20:24 63.7 °F /  17.6 °C 53.2 °F /  11.8 °C 30in /  1016.3hPa West 2mph /  3.2km/h 3mph /  4.8km/h 69% 0in /  0.0mm 0 W/m2
20:29 63.5 °F /  17.5 °C 53.1 °F /  11.7 °C 30in /  1016.3hPa West 0.9mph /  1.4km/h 4mph /  6.4km/h 69% 0in /  0.0mm 0 W/m2
20:34 63.3 °F /  17.4 °C 53.1 °F /  11.7 °C 30in /  1016.3hPa WSW 2mph /  3.2km/h 3mph /  4.8km/h 69% 0in /  0.0mm 0 W/m2
20:39 63.1 °F /  17.3 °C 53.6 °F /  12 °C 30in /  1016.3hPa WSW 2.9mph /  4.7km/h 4mph /  6.4km/h 71% 0in /  0.0mm 0 W/m2
20:44 63 °F /  17.2 °C 53.1 °F /  11.7 °C 30in /  1016.6hPa WSW 0.9mph /  1.4km/h 2mph /  3.2km/h 70% 0in /  0.0mm 0 W/m2
20:49 62.8 °F /  17.1 °C 53.2 °F /  11.8 °C 30in /  1016.6hPa WSW 2mph /  3.2km/h 4mph /  6.4km/h 71% 0in /  0.0mm 0 W/m2
20:54 62.4 °F /  16.9 °C 53.2 °F /  11.8 °C 30in /  1016.6hPa Calm     72% 0in /  0.0mm 0 W/m2
20:59 62.2 °F /  16.8 °C 53.4 °F /  11.9 °C 30in /  1016.6hPa Calm     73% 0in /  0.0mm 0 W/m2
21:04 61.7 °F /  16.5 °C 53.8 °F /  12.1 °C 30in /  1016.6hPa Calm     75% 0in /  0.0mm 0 W/m2
21:09 61.2 °F /  16.2 °C 53.6 °F /  12 °C 30in /  1016.6hPa Calm     76% 0in /  0.0mm 0 W/m2
21:14 60.6 °F /  15.9 °C 53.1 °F /  11.7 °C 30in /  1016.6hPa Calm     76% 0in /  0.0mm 0 W/m2
21:19 60.3 °F /  15.7 °C 53.4 °F /  11.9 °C 30in /  1016.6hPa Calm   1mph /  1.6km/h 78% 0in /  0.0mm 0 W/m2
21:24 59.5 °F /  15.3 °C 53.1 °F /  11.7 °C 30in /  1016.9hPa WSW 0.9mph /  1.4km/h 1mph /  1.6km/h 79% 0in /  0.0mm 0 W/m2
21:29 59.2 °F /  15.1 °C 52.7 °F /  11.5 °C 30in /  1016.6hPa Calm     79% 0in /  0.0mm 0 W/m2
21:34 58.6 °F /  14.8 °C 52.5 °F /  11.4 °C 30in /  1016.9hPa WSW 0.9mph /  1.4km/h 2mph /  3.2km/h 80% 0in /  0.0mm 0 W/m2
21:39 58.5 °F /  14.7 °C 52.7 °F /  11.5 °C 30in /  1016.9hPa Calm     81% 0in /  0.0mm 0 W/m2
21:44 58.1 °F /  14.5 °C 52.3 °F /  11.3 °C 30in /  1016.9hPa Calm   2mph /  3.2km/h 81% 0in /  0.0mm 0 W/m2
21:49 57.7 °F /  14.3 °C 52.3 °F /  11.3 °C 30in /  1016.9hPa Calm     82% 0in /  0.0mm 0 W/m2
21:54 57.4 °F /  14.1 °C 52.3 °F /  11.3 °C 30in /  1016.9hPa Calm     83% 0in /  0.0mm 0 W/m2
21:59 57 °F /  13.9 °C 52 °F /  11.1 °C 30in /  1016.9hPa Calm     83% 0in /  0.0mm 0 W/m2
22:04 56.8 °F /  13.8 °C 52 °F /  11.1 °C 30in /  1016.9hPa Calm     84% 0in /  0.0mm 0 W/m2
22:09 56.7 °F /  13.7 °C 52.2 °F /  11.2 °C 30in /  1016.9hPa Calm     85% 0in /  0.0mm 0 W/m2
22:14 56.5 °F /  13.6 °C 52 °F /  11.1 °C 30in /  1016.9hPa Calm     85% 0in /  0.0mm 0 W/m2
22:19 56.3 °F /  13.5 °C 52.2 °F /  11.2 °C 30in /  1016.9hPa Calm     86% 0in /  0.0mm 0 W/m2
22:24 56.1 °F /  13.4 °C 52 °F /  11.1 °C 30in /  1016.9hPa Calm     86% 0in /  0.0mm 0 W/m2
22:29 55.9 °F /  13.3 °C 51.8 °F /  11 °C 30in /  1016.9hPa Calm     86% 0in /  0.0mm 0 W/m2
22:34 55.8 °F /  13.2 °C 52 °F /  11.1 °C 30in /  1016.9hPa Calm     87% 0in /  0.0mm 0 W/m2
22:39 55.8 °F /  13.2 °C 52 °F /  11.1 °C 30in /  1016.9hPa Calm     87% 0in /  0.0mm 0 W/m2
22:44 55.6 °F /  13.1 °C 51.8 °F /  11 °C 30in /  1016.6hPa Calm     87% 0in /  0.0mm 0 W/m2
22:49 55.2 °F /  12.9 °C 51.8 °F /  11 °C 30in /  1016.9hPa Calm     88% 0in /  0.0mm 0 W/m2
22:54 55.2 °F /  12.9 °C 51.8 °F /  11 °C 30in /  1016.9hPa Calm     88% 0in /  0.0mm 0 W/m2
22:59 55 °F /  12.8 °C 51.8 °F /  11 °C 30in /  1016.9hPa Calm     89% 0in /  0.0mm 0 W/m2
23:04 54.9 °F /  12.7 °C 51.6 °F /  10.9 °C 30in /  1016.9hPa Calm     89% 0in /  0.0mm 0 W/m2
23:09 54.9 °F /  12.7 °C 51.6 °F /  10.9 °C 30in /  1016.9hPa Calm     89% 0in /  0.0mm 0 W/m2
23:14 54.7 °F /  12.6 °C 51.8 °F /  11 °C 30in /  1016.9hPa Calm     90% 0in /  0.0mm 0 W/m2
23:19 54.5 °F /  12.5 °C 51.6 °F /  10.9 °C 30in /  1016.9hPa Calm     90% 0in /  0.0mm 0 W/m2
23:24 54.3 °F /  12.4 °C 51.4 °F /  10.8 °C 30in /  1016.9hPa Calm     90% 0in /  0.0mm 0 W/m2
23:29 54.1 °F /  12.3 °C 51.3 °F /  10.7 °C 30in /  1016.9hPa Calm     90% 0in /  0.0mm 0 W/m2
23:34 54.1 °F /  12.3 °C 51.6 °F /  10.9 °C 30in /  1016.9hPa Calm     91% 0in /  0.0mm 0 W/m2
23:39 54 °F /  12.2 °C 51.4 °F /  10.8 °C 30in /  1016.6hPa Calm     91% 0in /  0.0mm 0 W/m2
23:44 54 °F /  12.2 °C 51.4 °F /  10.8 °C 30in /  1016.6hPa Calm     91% 0in /  0.0mm 0 W/m2
23:49 53.8 °F /  12.1 °C 51.4 °F /  10.8 °C 30in /  1016.6hPa Calm     92% 0in /  0.0mm 0 W/m2
23:54 53.8 °F /  12.1 °C 51.4 °F /  10.8 °C 30in /  1016.6hPa Calm     92% 0in /  0.0mm 0 W/m2
23:59 53.4 °F /  11.9 °C 51.1 °F /  10.6 °C 30in /  1016.6hPa Calm     92% 0in /  0.0mm 0 W/m2
Juneau County Weather
Compliments of Weather Underground - 4 mb